Time;durP1;ratioP1;P1;durP2;ratioP2;P2;SDS_P1;SDS_P2;PMS_P1;PMS_P2;Temp;Humidity;BMP_temperature;BMP_pressure;BME280_temperature;BME280_humidity;BME280_pressure;Samples;Min_cycle;Max_cycle;Signal;HPM_P1;HPM_P2
2021/08/26 00:06:58;;;;;;;4.55;3.65;;;;;;;21.28;61.93;101383.72;5132052;27;20027;-55
2021/08/26 00:09:24;;;;;;;4.50;3.50;;;;;;;21.28;61.61;101390.94;5119812;27;20088;-55
2021/08/26 00:11:52;;;;;;;3.85;3.17;;;;;;;21.24;61.43;101378.91;5130025;27;20023;-55
2021/08/26 00:14:19;;;;;;;5.05;3.58;;;;;;;21.19;61.54;101380.34;5132105;27;20032;-56
2021/08/26 00:16:44;;;;;;;3.75;3.45;;;;;;;21.16;61.06;101379.88;5132073;27;20035;-55
2021/08/26 00:19:11;;;;;;;6.13;3.55;;;;;;;21.11;60.35;101377.75;5132255;27;20484;-56
2021/08/26 00:21:38;;;;;;;6.55;3.60;;;;;;;21.11;60.64;101379.59;5131763;27;20494;-56
2021/08/26 00:24:05;;;;;;;4.35;3.45;;;;;;;21.09;60.06;101377.13;5131970;27;20115;-55
2021/08/26 00:26:32;;;;;;;3.50;3.20;;;;;;;21.13;60.41;101378.41;5131950;27;20042;-55
2021/08/26 00:29:03;;;;;;;3.67;2.95;;;;;;;21.16;60.59;101383.41;5131614;28;20045;-56
2021/08/26 00:31:29;;;;;;;3.88;3.38;;;;;;;21.12;60.36;101384.78;5131918;28;20035;-56
2021/08/26 00:33:55;;;;;;;6.97;3.17;;;;;;;21.13;60.62;101377.56;5131951;28;20028;-56
2021/08/26 00:36:21;;;;;;;5.50;3.45;;;;;;;21.14;60.89;101374.69;5131523;28;20038;-56
2021/08/26 00:38:47;;;;;;;4.15;3.28;;;;;;;21.15;61.17;101373.66;5131822;28;20058;-55
2021/08/26 00:41:17;;;;;;;4.90;3.15;;;;;;;21.16;61.39;101375.34;5131592;28;20374;-56
2021/08/26 00:43:43;;;;;;;3.22;2.90;;;;;;;21.16;61.67;101377.19;5132077;28;20394;-56
2021/08/26 00:46:14;;;;;;;3.47;2.90;;;;;;;21.16;61.70;101369.97;5121014;28;20027;-55
2021/08/26 00:48:44;;;;;;;3.42;2.28;;;;;;;21.17;61.99;101373.47;5107703;28;20028;-55
2021/08/26 00:51:09;;;;;;;3.40;3.10;;;;;;;21.17;61.81;101360.03;5099609;28;20441;-56
2021/08/26 00:53:35;;;;;;;3.03;2.72;;;;;;;21.15;61.83;101368.28;5131676;28;20031;-56
2021/08/26 00:56:01;;;;;;;4.70;2.80;;;;;;;21.17;62.02;101358.19;5131583;28;20363;-56
2021/08/26 00:58:30;;;;;;;5.25;3.10;;;;;;;21.13;62.53;101362.28;5131472;28;20504;-55
2021/08/26 01:01:03;;;;;;;;;;;;;;;21.12;62.36;101365.97;5132025;28;20035;-56
2021/08/26 01:03:56;;;;;;;3.97;3.58;;;;;;;21.11;62.12;101358.09;5131372;28;19963;-56
2021/08/26 01:06:40;;;;;;;8.38;3.30;;;;;;;21.12;62.16;101362.47;5131596;27;20554;-56
2021/08/26 01:09:13;;;;;;;3.72;2.92;;;;;;;21.11;61.90;101356.25;5135639;27;20038;-55
2021/08/26 01:11:42;;;;;;;3.97;3.20;;;;;;;21.11;61.36;101358.94;5108977;27;20035;-55
2021/08/26 01:14:11;;;;;;;3.30;3.00;;;;;;;21.06;60.84;101350.63;5115041;28;20031;-56
2021/08/26 01:16:38;;;;;;;3.67;3.20;;;;;;;20.99;60.62;101357.81;5114682;28;20089;-55
2021/08/26 01:19:04;;;;;;;4.57;2.85;;;;;;;20.95;60.45;101349.28;5114649;28;20024;-56
2021/08/26 01:21:30;;;;;;;3.28;2.97;;;;;;;20.89;60.02;101347.31;5114738;28;20039;-56
2021/08/26 01:24:02;;;;;;;3.55;3.25;;;;;;;20.85;59.90;101356.81;5114644;28;20153;-55
2021/08/26 01:26:32;;;;;;;3.85;3.22;;;;;;;20.82;59.92;101350.78;5115258;28;20108;-55
2021/08/26 01:29:01;;;;;;;4.07;3.30;;;;;;;20.78;60.16;101352.19;5114365;28;20031;-56
2021/08/26 01:31:26;;;;;;;3.53;2.90;;;;;;;20.82;60.17;101349.94;5114628;28;20099;-55
2021/08/26 01:33:53;;;;;;;3.40;2.88;;;;;;;20.86;59.87;101347.72;5115082;28;20473;-56
2021/08/26 01:36:19;;;;;;;3.97;3.00;;;;;;;20.85;59.89;101349.56;5096066;28;20039;-55
2021/08/26 01:38:46;;;;;;;3.05;2.85;;;;;;;20.92;60.29;101344.28;5096353;28;20035;-56
2021/08/26 01:41:15;;;;;;;3.10;2.70;;;;;;;20.92;60.33;101346.97;5114116;28;20032;-55
2021/08/26 01:43:45;;;;;;;3.60;2.47;;;;;;;20.93;60.35;101344.09;5114371;28;20036;-56
2021/08/26 01:46:13;;;;;;;3.47;2.78;;;;;;;20.95;60.42;101341.22;5114517;28;20092;-55
2021/08/26 01:48:39;;;;;;;3.10;2.80;;;;;;;20.94;60.42;101340.38;5110985;28;20068;-56
2021/08/26 01:51:05;;;;;;;2.92;2.65;;;;;;;20.94;60.51;101343.06;5111588;28;20028;-55
2021/08/26 01:53:30;;;;;;;2.72;2.53;;;;;;;20.93;60.35;101343.25;5114144;28;20028;-56
2021/08/26 01:55:56;;;;;;;4.75;2.90;;;;;;;20.84;59.69;101339.84;5114039;28;20044;-56
2021/08/26 01:58:22;;;;;;;4.22;2.70;;;;;;;20.78;59.10;101343.28;5113961;28;20091;-55
2021/08/26 02:00:47;;;;;;;5.72;3.03;;;;;;;20.68;59.01;101340.91;5132231;27;20493;-55
2021/08/26 02:03:13;;;;;;;3.50;3.20;;;;;;;20.66;59.78;101356.38;5116024;27;20439;-56
2021/08/26 02:05:39;;;;;;;3.35;2.50;;;;;;;20.64;59.05;101351.19;5134711;27;20043;-56
2021/08/26 02:08:05;;;;;;;3.38;2.72;;;;;;;20.66;59.71;101342.94;5134412;27;20528;-56
2021/08/26 02:10:31;;;;;;;3.22;2.65;;;;;;;20.66;59.63;101348.31;5115889;27;20041;-55
2021/08/26 02:12:56;;;;;;;3.22;2.85;;;;;;;20.63;59.12;101354.91;5134751;27;20039;-55
2021/08/26 02:15:22;;;;;;;4.53;2.47;;;;;;;20.65;59.10;101339.44;5134045;27;20042;-55
2021/08/26 02:17:48;;;;;;;3.38;2.65;;;;;;;20.67;59.29;101339.25;5133943;27;20039;-55
2021/08/26 02:20:14;;;;;;;2.75;2.55;;;;;;;20.67;59.33;101341.94;5133749;27;20038;-55
2021/08/26 02:22:40;;;;;;;2.97;2.40;;;;;;;20.69;59.59;101343.41;5133626;27;20039;-55
2021/08/26 02:25:06;;;;;;;2.55;2.35;;;;;;;20.72;59.86;101344.88;5134124;27;20042;-56
2021/08/26 02:27:32;;;;;;;4.07;2.90;;;;;;;20.70;59.89;101342.38;5133857;27;20039;-56
2021/08/26 02:29:58;;;;;;;2.33;2.13;;;;;;;20.74;60.15;101340.16;5134136;27;20084;-56
2021/08/26 02:32:23;;;;;;;2.88;2.20;;;;;;;20.72;60.16;101347.56;5133782;27;20031;-57
2021/08/26 02:34:49;;;;;;;2.40;2.20;;;;;;;20.70;59.92;101338.88;5133993;27;20426;-56
2021/08/26 02:37:15;;;;;;;2.75;2.50;;;;;;;20.70;59.65;101338.88;5133993;27;20538;-56
2021/08/26 02:39:41;;;;;;;2.67;2.45;;;;;;;20.69;59.76;101338.03;5133744;27;20030;-56
2021/08/26 02:42:06;;;;;;;4.47;2.30;;;;;;;20.71;59.83;101337.84;5133822;27;20043;-56
2021/08/26 02:44:32;;;;;;;3.55;2.70;;;;;;;20.65;59.54;101333.22;5115484;27;20071;-55
2021/08/26 02:46:58;;;;;;;5.40;2.78;;;;;;;20.58;59.21;101333.16;5134146;27;20481;-56
2021/08/26 02:49:24;;;;;;;4.32;2.42;;;;;;;20.54;58.85;101342.63;5123662;27;20037;-56
2021/08/26 02:51:49;;;;;;;3.05;2.47;;;;;;;20.50;58.74;101339.47;5133576;27;20023;-56
2021/08/26 02:54:15;;;;;;;2.90;2.60;;;;;;;20.47;58.98;101337.16;5133304;27;20076;-56
2021/08/26 02:56:41;;;;;;;2.90;2.67;;;;;;;20.47;59.41;101339.84;5133457;27;20118;-57
2021/08/26 02:59:07;;;;;;;6.28;2.75;;;;;;;20.45;58.96;101342.72;5133477;27;20512;-55
2021/08/26 03:01:33;;;;;;;2.45;2.25;;;;;;;20.54;59.22;101339.94;5133278;27;20049;-55
2021/08/26 03:03:58;;;;;;;2.85;2.65;;;;;;;20.53;58.71;101332.91;5133380;27;20035;-56
2021/08/26 03:06:24;;;;;;;2.55;2.35;;;;;;;20.51;59.03;101329.56;5133183;27;20054;-55
2021/08/26 03:08:50;;;;;;;3.88;2.30;;;;;;;20.54;59.14;101330.03;5133084;27;20366;-55
2021/08/26 03:11:15;;;;;;;3.95;2.20;;;;;;;20.57;59.46;101326.97;5132927;27;20071;-56
2021/08/26 03:13:41;;;;;;;2.88;2.40;;;;;;;20.55;59.27;101330.84;5133198;27;20038;-56
2021/08/26 03:16:07;;;;;;;2.83;2.40;;;;;;;20.54;59.28;101334.56;5133170;27;20363;-56
2021/08/26 03:18:32;;;;;;;4.03;2.53;;;;;;;20.49;58.88;101331.59;5132685;27;20426;-56
2021/08/26 03:20:58;;;;;;;4.18;2.58;;;;;;;20.49;59.24;101335.13;5133221;27;20046;-56
2021/08/26 03:23:24;;;;;;;4.18;2.90;;;;;;;20.49;59.24;101332.44;5132964;27;20516;-56
2021/08/26 03:25:50;;;;;;;7.50;2.78;;;;;;;20.53;59.59;101327.53;5132774;27;20023;-56
2021/08/26 03:28:18;;;;;;;3.42;2.67;;;;;;;20.54;59.71;101334.56;5132980;27;20027;-56
2021/08/26 03:30:44;;;;;;;3.17;2.75;;;;;;;20.49;59.34;101328.91;5131902;27;20039;-56
2021/08/26 03:33:10;;;;;;;3.40;2.90;;;;;;;20.50;59.16;101319.84;5132868;27;20035;-56
2021/08/26 03:35:36;;;;;;;3.47;3.17;;;;;;;20.45;59.14;101320.41;5132608;27;20038;-56
2021/08/26 03:38:02;;;;;;;4.85;3.00;;;;;;;20.43;58.93;101322.47;5132704;27;20035;-56
2021/08/26 03:40:28;;;;;;;3.40;3.10;;;;;;;20.35;58.64;101312.66;5132387;27;20027;-56
2021/08/26 03:42:54;;;;;;;3.47;2.80;;;;;;;20.33;58.74;101318.22;5132697;27;20054;-55
2021/08/26 03:45:19;;;;;;;5.15;3.25;;;;;;;20.29;58.36;101316.09;5133158;27;20039;-56
2021/08/26 03:47:45;;;;;;;2.85;2.65;;;;;;;20.28;58.33;101315.25;5132290;27;20027;-56
2021/08/26 03:50:11;;;;;;;4.88;3.17;;;;;;;20.18;58.14;101315.56;5132355;27;20028;-56
2021/08/26 03:52:37;;;;;;;5.03;2.80;;;;;;;20.23;58.35;101316.88;5132355;27;20046;-56
2021/08/26 03:55:03;;;;;;;3.45;2.97;;;;;;;20.25;58.51;101317.47;5132398;27;20072;-56
2021/08/26 03:57:29;;;;;;;3.47;3.10;;;;;;;20.29;58.71;101313.44;5131241;27;20050;-56
2021/08/26 03:59:54;;;;;;;3.97;3.50;;;;;;;20.30;58.81;101315.91;5098500;28;20040;-55
2021/08/26 04:02:21;;;;;;;6.22;3.85;;;;;;;20.31;59.20;101312.22;5111942;28;20043;-56
2021/08/26 04:04:46;;;;;;;3.40;2.80;;;;;;;20.34;59.46;101319.03;5111547;28;20028;-56
2021/08/26 04:07:12;;;;;;;3.38;3.08;;;;;;;20.35;59.38;101327.94;5111534;28;20390;-56
2021/08/26 04:09:38;;;;;;;4.85;3.90;;;;;;;20.31;58.73;101322.09;5111677;28;20035;-56
2021/08/26 04:12:04;;;;;;;3.10;2.60;;;;;;;20.31;58.89;101325.63;5111700;28;20043;-55
2021/08/26 04:14:30;;;;;;;3.33;2.97;;;;;;;20.30;58.76;101328.50;5111989;28;20099;-56
2021/08/26 04:16:57;;;;;;;4.03;3.60;;;;;;;20.24;58.65;101323.88;5111389;28;20031;-55
2021/08/26 04:19:23;;;;;;;4.20;3.63;;;;;;;20.19;58.83;101325.25;5111330;28;20032;-56
2021/08/26 04:21:49;;;;;;;6.65;4.10;;;;;;;20.17;59.23;101319.25;5111310;28;20484;-56
2021/08/26 04:24:15;;;;;;;4.90;3.78;;;;;;;20.23;59.47;101317.66;5111400;28;20023;-55
2021/08/26 04:26:40;;;;;;;3.17;2.88;;;;;;;20.25;59.56;101314.81;5111429;28;20028;-56
2021/08/26 04:29:08;;;;;;;4.03;3.13;;;;;;;20.27;59.67;101327.03;5111229;28;20039;-56
2021/08/26 04:31:35;;;;;;;2.83;2.63;;;;;;;20.31;59.56;101327.47;5111406;28;20081;-56
2021/08/26 04:34:01;;;;;;;2.97;2.67;;;;;;;20.31;59.24;101322.09;5111113;28;20031;-55
2021/08/26 04:36:27;;;;;;;3.20;2.95;;;;;;;20.29;58.97;101324.97;5111352;28;20118;-55
2021/08/26 04:38:52;;;;;;;3.90;2.50;;;;;;;20.30;59.00;101325.81;5111095;28;20044;-55
2021/08/26 04:41:18;;;;;;;3.42;2.97;;;;;;;20.31;59.08;101333.69;5112348;28;20035;-55
2021/08/26 04:43:44;;;;;;;2.92;2.53;;;;;;;20.30;59.08;101336.56;5080393;28;20067;-55
2021/08/26 04:46:09;;;;;;;3.25;2.95;;;;;;;20.28;58.90;101331.38;5115847;28;20031;-56
2021/08/26 04:48:35;;;;;;;3.13;2.22;;;;;;;20.27;58.90;101334.25;5096402;28;20432;-56
2021/08/26 04:51:01;;;;;;;4.47;2.47;;;;;;;20.29;58.70;101333.03;5105051;28;20072;-55
2021/08/26 04:53:27;;;;;;;2.72;2.42;;;;;;;20.28;58.96;101338.59;5115203;28;20032;-56
2021/08/26 04:55:52;;;;;;;2.33;2.13;;;;;;;20.28;58.84;101342.13;5115098;28;20039;-56
2021/08/26 04:58:18;;;;;;;2.30;2.05;;;;;;;20.28;58.86;101341.28;5115230;28;20031;-56
2021/08/26 05:00:44;;;;;;;2.72;2.50;;;;;;;20.26;58.74;101343.31;5132802;27;20039;-56
2021/08/26 05:03:09;;;;;;;3.63;2.33;;;;;;;20.27;58.99;101337.78;5135592;27;20031;-55
2021/08/26 05:05:35;;;;;;;3.83;2.40;;;;;;;20.26;58.93;101337.97;5135618;27;20027;-55
2021/08/26 05:08:01;;;;;;;3.53;2.20;;;;;;;20.26;58.76;101330.72;5135459;27;20484;-56
2021/08/26 05:10:26;;;;;;;2.47;2.22;;;;;;;20.25;58.70;101334.44;5135475;27;20034;-56
2021/08/26 05:12:52;;;;;;;2.58;2.30;;;;;;;20.25;58.87;101330.91;5117121;27;20035;-55
2021/08/26 05:15:18;;;;;;;2.88;2.40;;;;;;;20.24;59.07;101327.41;5135799;27;20039;-55
2021/08/26 05:17:44;;;;;;;3.80;2.28;;;;;;;20.24;58.78;101329.25;5117207;27;20554;-56
2021/08/26 05:20:10;;;;;;;3.80;2.22;;;;;;;20.24;58.89;101331.94;5134927;27;20035;-56
2021/08/26 05:22:36;;;;;;;4.13;2.70;;;;;;;20.23;58.73;101332.97;5135353;27;20111;-56
2021/08/26 05:25:02;;;;;;;2.58;2.25;;;;;;;20.23;59.15;101335.66;5135174;27;20031;-56
2021/08/26 05:27:27;;;;;;;4.10;2.47;;;;;;;20.23;58.84;101335.66;5135083;27;20115;-56
2021/08/26 05:29:53;;;;;;;2.58;2.38;;;;;;;20.22;58.73;101339.34;5135102;27;20065;-56
2021/08/26 05:32:18;;;;;;;3.35;2.20;;;;;;;20.21;58.73;101349.22;5134955;27;20035;-55
2021/08/26 05:34:45;;;;;;;3.55;1.88;;;;;;;20.22;58.69;101353.59;5135477;27;20411;-56
2021/08/26 05:37:11;;;;;;;2.40;2.20;;;;;;;20.21;58.71;101341.19;5134721;27;20039;-56
2021/08/26 05:39:38;;;;;;;2.20;2.00;;;;;;;20.20;58.79;101344.88;5134960;27;20039;-56
2021/08/26 05:42:03;;;;;;;2.50;1.90;;;;;;;20.22;58.72;101342.03;5135064;27;20031;-56
2021/08/26 05:44:29;;;;;;;3.05;2.03;;;;;;;20.18;58.72;101344.22;5134780;27;20035;-55
2021/08/26 05:46:55;;;;;;;2.70;2.25;;;;;;;20.18;58.83;101345.06;5135283;27;20031;-56
2021/08/26 05:49:20;;;;;;;2.40;2.22;;;;;;;20.15;58.66;101348.13;5131683;27;20031;-55
2021/08/26 05:51:46;;;;;;;4.53;2.58;;;;;;;20.14;58.57;101341.13;5128570;27;20027;-56
2021/08/26 05:54:12;;;;;;;5.32;2.10;;;;;;;20.16;58.60;101346.28;5134251;27;20031;-56
2021/08/26 05:56:38;;;;;;;2.22;2.03;;;;;;;20.18;58.54;101350.44;5133365;27;20071;-56
2021/08/26 05:59:03;;;;;;;2.33;2.13;;;;;;;20.18;58.48;101342.41;5134396;27;20051;-56
2021/08/26 06:01:30;;;;;;;2.33;2.10;;;;;;;20.17;58.47;101342.59;5134508;27;20039;-57
2021/08/26 06:03:56;;;;;;;4.32;1.92;;;;;;;20.17;58.41;101346.09;5134805;27;20031;-56
2021/08/26 06:06:22;;;;;;;4.03;2.10;;;;;;;20.18;59.22;101346.91;5134295;27;20389;-56
2021/08/26 06:08:49;;;;;;;2.72;2.10;;;;;;;20.16;59.68;101346.28;5116175;27;20035;-55
2021/08/26 06:11:14;;;;;;;2.35;2.10;;;;;;;20.16;59.74;101340.94;5134242;27;20470;-56
2021/08/26 06:13:40;;;;;;;2.25;2.05;;;;;;;20.15;59.71;101348.13;5134595;27;20031;-56
2021/08/26 06:16:06;;;;;;;6.00;2.70;;;;;;;20.14;59.71;101346.47;5134221;27;20031;-56
2021/08/26 06:18:32;;;;;;;2.50;2.30;;;;;;;20.14;59.92;101348.31;5134226;27;20419;-55
2021/08/26 06:20:58;;;;;;;2.35;2.10;;;;;;;20.16;59.95;101346.28;5134140;27;20453;-56
2021/08/26 06:23:23;;;;;;;2.53;2.30;;;;;;;20.15;59.80;101353.50;5133502;27;20031;-56
2021/08/26 06:25:49;;;;;;;3.85;2.50;;;;;;;20.15;59.85;101349.97;5134106;27;20031;-57
2021/08/26 06:28:15;;;;;;;4.50;2.70;;;;;;;20.16;59.70;101351.66;5114383;27;20039;-56
2021/08/26 06:30:41;;;;;;;3.72;2.60;;;;;;;20.15;59.83;101349.97;5133401;27;20027;-55
2021/08/26 06:33:07;;;;;;;2.88;2.30;;;;;;;20.15;59.80;101352.66;5130791;27;20091;-55
2021/08/26 06:35:33;;;;;;;2.70;2.50;;;;;;;20.14;59.75;101351.84;5130175;27;20042;-56
2021/08/26 06:37:59;;;;;;;2.40;2.20;;;;;;;20.15;59.75;101355.34;5133179;27;20027;-56
2021/08/26 06:40:24;;;;;;;6.90;2.60;;;;;;;20.14;59.85;101353.69;5133642;27;20533;-56
2021/08/26 06:42:50;;;;;;;4.13;2.20;;;;;;;20.13;59.91;101354.72;5124496;27;20488;-55
2021/08/26 06:45:16;;;;;;;10.05;2.72;;;;;;;20.11;60.37;101362.13;5109520;28;20019;-55
2021/08/26 06:47:41;;;;;;;6.57;1.98;;;;;;;20.11;60.34;101362.97;5122471;27;20134;-55
2021/08/26 06:50:08;;;;;;;4.40;2.38;;;;;;;20.06;60.03;101355.47;5120238;27;20020;-56
2021/08/26 06:52:33;;;;;;;6.25;2.80;;;;;;;20.06;59.76;101352.78;5120265;27;20047;-55
2021/08/26 06:54:59;;;;;;;4.93;3.33;;;;;;;20.02;59.56;101361.34;5122184;27;20342;-55
2021/08/26 06:57:27;;;;;;;4.55;3.30;;;;;;;20.02;59.56;101358.69;5106993;27;20084;-56
2021/08/26 06:59:56;;;;;;;8.27;4.00;;;;;;;19.99;59.66;101361.72;5112816;27;20032;-56
2021/08/26 07:02:22;;;;;;;5.78;3.92;;;;;;;19.98;59.54;101363.56;5115120;27;20076;-55
2021/08/26 07:04:48;;;;;;;8.05;4.63;;;;;;;19.93;59.89;101360.59;5116859;27;20423;-56
2021/08/26 07:07:13;;;;;;;6.78;4.10;;;;;;;19.87;60.11;101364.00;5112456;27;20605;-57
2021/08/26 07:09:39;;;;;;;5.65;4.18;;;;;;;19.80;60.39;101361.22;5129971;27;20036;-56
2021/08/26 07:12:05;;;;;;;5.40;4.25;;;;;;;19.77;60.63;101359.75;5130266;27;20031;-56
2021/08/26 07:14:31;;;;;;;5.70;4.65;;;;;;;19.74;60.83;101359.28;5131317;27;20373;-56
2021/08/26 07:16:57;;;;;;;4.85;4.32;;;;;;;19.72;61.29;101354.09;5112588;27;20032;-57
2021/08/26 07:19:22;;;;;;;8.43;5.18;;;;;;;19.70;61.74;101348.91;5122088;27;20077;-56
2021/08/26 07:21:48;;;;;;;9.82;5.00;;;;;;;19.71;62.17;101349.75;5131664;27;20096;-56
2021/08/26 07:24:15;;;;;;;11.05;6.10;;;;;;;19.70;62.25;101356.16;5132192;27;20027;-57
2021/08/26 07:26:41;;;;;;;11.90;5.72;;;;;;;19.71;62.53;101355.13;5131505;27;20035;-56
2021/08/26 07:29:07;;;;;;;18.33;6.60;;;;;;;19.69;62.77;101355.31;5123392;27;20020;-55
2021/08/26 07:31:33;;;;;;;8.55;6.78;;;;;;;19.68;63.34;101363.53;5132000;27;20039;-56
2021/08/26 07:33:58;;;;;;;10.38;7.28;;;;;;;19.70;63.44;101356.97;5129725;27;20027;-56
2021/08/26 07:36:24;;;;;;;15.10;7.53;;;;;;;19.68;63.82;101352.81;5115449;27;20070;-56
2021/08/26 07:38:50;;;;;;;11.82;7.70;;;;;;;19.67;64.23;101360.00;5119603;27;20055;-56
2021/08/26 07:41:15;;;;;;;9.88;8.15;;;;;;;19.68;64.36;101355.50;5126488;27;20019;-56
2021/08/26 07:43:41;;;;;;;13.25;8.57;;;;;;;19.65;64.67;101362.03;5121819;27;20506;-56
2021/08/26 07:46:08;;;;;;;13.98;8.05;;;;;;;19.67;64.93;101351.97;5125855;27;20028;-56
2021/08/26 07:48:34;;;;;;;10.50;7.60;;;;;;;19.69;64.96;101359.84;5123901;27;20102;-56
2021/08/26 07:51:04;;;;;;;7.93;6.68;;;;;;;19.73;64.61;101361.16;5124580;27;20031;-56
2021/08/26 07:53:31;;;;;;;11.23;7.03;;;;;;;19.75;64.43;101364.47;5124985;27;20074;-55
2021/08/26 07:55:57;;;;;;;7.70;6.90;;;;;;;19.77;64.38;101365.13;5121652;27;20408;-55
2021/08/26 07:58:24;;;;;;;14.98;7.22;;;;;;;19.79;64.46;101378.34;5126370;27;20035;-56
2021/08/26 08:00:49;;;;;;;8.02;6.70;;;;;;;19.79;64.59;101372.97;5107772;28;20051;-56
2021/08/26 08:03:15;;;;;;;7.85;6.50;;;;;;;19.79;64.47;101367.63;5126054;27;20026;-56
2021/08/26 08:05:41;;;;;;;8.63;6.53;;;;;;;19.80;64.72;101374.63;5122468;27;20031;-56
2021/08/26 08:08:06;;;;;;;10.02;6.22;;;;;;;19.77;64.74;101370.47;5110034;28;20023;-55
2021/08/26 08:10:32;;;;;;;11.15;6.63;;;;;;;19.77;65.19;101381.22;5121909;27;20031;-56
2021/08/26 08:12:58;;;;;;;12.52;6.65;;;;;;;19.78;65.50;101374.81;5131807;27;20027;-55
2021/08/26 08:15:24;;;;;;;10.32;6.40;;;;;;;19.75;66.11;101380.56;5123965;27;20046;-55
2021/08/26 08:17:49;;;;;;;12.85;6.88;;;;;;;19.75;66.63;101377.06;5131919;27;20543;-55
2021/08/26 08:20:15;;;;;;;9.82;6.93;;;;;;;19.78;67.02;101374.81;5128859;27;20072;-55
2021/08/26 08:22:41;;;;;;;7.68;6.72;;;;;;;19.77;66.71;101375.84;5113728;28;20505;-55
2021/08/26 08:25:07;;;;;;;9.65;7.32;;;;;;;19.80;67.06;101382.69;5132076;27;20047;-55
2021/08/26 08:27:33;;;;;;;9.68;7.90;;;;;;;19.82;67.01;101375.31;5115960;27;20023;-56
2021/08/26 08:29:59;;;;;;;9.80;7.85;;;;;;;19.84;66.99;101379.44;5120562;27;20438;-55
2021/08/26 08:32:25;;;;;;;12.13;7.72;;;;;;;19.85;67.30;101372.25;5128544;28;20019;-56
2021/08/26 08:34:50;;;;;;;9.05;7.93;;;;;;;19.84;68.07;101368.72;5126314;28;20032;-55
2021/08/26 08:37:16;;;;;;;8.98;8.07;;;;;;;19.87;67.86;101369.38;5113881;28;20027;-55
2021/08/26 08:39:41;;;;;;;13.30;8.50;;;;;;;19.87;67.95;101380.97;5121316;28;20066;-57
2021/08/26 08:42:07;;;;;;;11.02;8.10;;;;;;;19.87;68.51;101372.91;5122210;28;20028;-57
2021/08/26 08:44:35;;;;;;;8.98;8.10;;;;;;;19.88;68.84;101369.19;5121041;28;20069;-56
2021/08/26 08:47:01;;;;;;;14.25;10.27;;;;;;;19.87;69.45;101370.22;5114929;28;20040;-55
2021/08/26 08:49:28;;;;;;;12.85;10.65;;;;;;;19.87;69.67;101380.13;5127721;28;20034;-56
2021/08/26 08:51:55;;;;;;;11.93;9.13;;;;;;;19.88;69.53;101374.56;5114516;28;20076;-56
2021/08/26 08:54:22;;;;;;;11.50;8.95;;;;;;;19.95;69.37;101380.03;5116616;28;20039;-54
2021/08/26 08:56:48;;;;;;;9.82;8.80;;;;;;;19.98;69.41;101376.97;5114421;28;20461;-56
2021/08/26 08:59:15;;;;;;;11.65;8.75;;;;;;;19.95;70.84;101375.50;5118182;28;20086;-56
2021/08/26 09:01:50;;;;;;;18.65;10.77;;;;;;;19.95;71.94;101370.16;5130049;28;20046;-55
2021/08/26 09:04:15;;;;;;;14.05;9.05;;;;;;;19.95;72.22;101361.25;5130557;28;20034;-55
2021/08/26 09:06:42;;;;;;;10.40;9.10;;;;;;;19.96;72.28;101365.59;5128344;28;20051;-55
2021/08/26 09:09:10;;;;;;;11.68;9.38;;;;;;;19.97;72.05;101364.59;5130619;28;20642;-56
2021/08/26 09:11:37;;;;;;;10.13;9.07;;;;;;;19.99;71.97;101369.78;5126895;28;20035;-56
2021/08/26 09:14:13;;;;;;;12.10;9.93;;;;;;;19.99;72.35;101365.22;5131196;28;20069;-55
2021/08/26 09:16:42;;;;;;;13.93;10.57;;;;;;;19.99;72.35;101369.78;5125995;28;20388;-55
2021/08/26 09:19:23;;;;;;;9.75;8.75;;;;;;;20.03;72.20;101369.25;5130182;28;20039;-55
2021/08/26 09:21:50;;;;;;;10.52;8.05;;;;;;;20.04;72.26;101364.69;5123731;28;20048;-55
2021/08/26 09:24:17;;;;;;;10.38;9.18;;;;;;;20.04;72.84;101365.53;5127544;28;20042;-55
2021/08/26 09:26:47;;;;;;;10.20;9.13;;;;;;;20.05;72.05;101367.19;5128657;27;20024;-56
2021/08/26 09:29:14;;;;;;;10.88;8.73;;;;;;;20.08;72.11;101369.50;5133164;27;20055;-56
2021/08/26 09:31:43;;;;;;;13.15;9.35;;;;;;;20.10;72.26;101372.00;5134215;27;20666;-56
2021/08/26 09:34:17;;;;;;;9.52;8.52;;;;;;;20.11;71.95;101371.00;5134176;27;20031;-55
2021/08/26 09:36:48;;;;;;;10.52;9.05;;;;;;;20.13;72.79;101377.00;5125166;27;20040;-56
2021/08/26 09:39:20;;;;;;;10.85;9.25;;;;;;;20.14;72.54;101376.00;5122118;27;20034;-55
2021/08/26 09:41:54;;;;;;;11.05;8.90;;;;;;;20.17;72.99;101375.63;5112264;28;20367;-56
2021/08/26 09:44:28;;;;;;;9.18;8.30;;;;;;;20.19;71.54;101378.13;5130710;27;20080;-55
2021/08/26 09:46:56;;;;;;;11.88;8.82;;;;;;;20.20;72.76;101371.72;5132657;27;20059;-55
2021/08/26 09:49:24;;;;;;;9.68;8.27;;;;;;;20.22;72.50;101377.75;5131514;27;20538;-55
2021/08/26 09:52:08;;;;;;;9.00;8.20;;;;;;;20.24;72.20;101374.88;5131316;27;20081;-55
2021/08/26 09:54:37;;;;;;;10.88;8.88;;;;;;;20.25;72.70;101373.84;5132636;27;20031;-55
2021/08/26 09:57:05;;;;;;;12.40;9.07;;;;;;;20.25;72.08;101377.38;5124417;27;20074;-55
2021/08/26 09:59:49;;;;;;;9.95;8.10;;;;;;;20.28;72.16;101373.47;5132768;27;20027;-55
2021/08/26 10:02:18;;;;;;;8.57;7.68;;;;;;;20.29;72.39;101375.97;5132727;27;20033;-55
2021/08/26 10:04:44;;;;;;;9.05;8.02;;;;;;;20.32;72.42;101378.28;5121534;27;20039;-57
2021/08/26 10:07:10;;;;;;;6.95;6.22;;;;;;;20.35;71.08;101370.91;5131509;27;20399;-55
2021/08/26 10:09:40;;;;;;;8.63;7.10;;;;;;;20.37;71.71;101363.50;5131587;27;20085;-55
2021/08/26 10:12:13;;;;;;;9.10;6.97;;;;;;;20.37;71.71;101361.63;5121403;27;20031;-56
2021/08/26 10:14:41;;;;;;;7.40;6.70;;;;;;;20.38;72.01;101360.63;5132346;27;20031;-55
2021/08/26 10:17:09;;;;;;;8.63;6.70;;;;;;;20.39;72.76;101362.28;5128972;27;20063;-55
2021/08/26 10:19:34;;;;;;;18.52;6.78;;;;;;;20.39;72.32;101370.31;5132213;27;20401;-55
2021/08/26 10:22:00;;;;;;;7.50;5.60;;;;;;;20.43;71.37;101376.16;5132739;27;20034;-55
2021/08/26 10:24:26;;;;;;;8.05;6.00;;;;;;;20.44;72.22;101373.28;5132619;27;20046;-55
2021/08/26 10:27:03;;;;;;;6.78;5.93;;;;;;;20.45;72.41;101374.94;5130205;27;20034;-56
2021/08/26 10:29:30;;;;;;;7.43;6.47;;;;;;;20.48;72.11;101378.28;5131533;27;20027;-56
2021/08/26 10:32:00;;;;;;;9.50;5.63;;;;;;;20.49;71.90;101374.56;5131001;27;20026;-56
2021/08/26 10:34:29;;;;;;;5.13;4.65;;;;;;;20.50;71.69;101382.44;5129823;27;20076;-55
2021/08/26 10:36:54;;;;;;;6.05;5.00;;;;;;;20.54;70.59;101382.91;5131693;27;20070;-55
2021/08/26 10:39:28;;;;;;;10.10;5.85;;;;;;;20.53;71.04;101382.06;5131241;27;20659;-55
2021/08/26 10:41:55;;;;;;;6.50;4.85;;;;;;;20.56;70.83;101381.69;5133099;27;20054;-55
2021/08/26 10:44:21;;;;;;;5.55;4.78;;;;;;;20.60;70.70;101371.41;5133125;27;20034;-55
2021/08/26 10:46:53;;;;;;;5.90;4.68;;;;;;;20.63;70.31;101375.56;5127927;27;20225;-55
2021/08/26 10:49:21;;;;;;;4.90;3.88;;;;;;;20.65;70.03;101363.63;5132653;27;20115;-55
2021/08/26 10:51:49;;;;;;;5.55;4.05;;;;;;;20.67;69.92;101366.94;5132736;27;20031;-55
2021/08/26 10:54:24;;;;;;;4.40;4.00;;;;;;;20.69;69.85;101370.28;5132799;27;20500;-55
2021/08/26 10:56:49;;;;;;;4.63;3.92;;;;;;;20.71;69.61;101364.72;5132304;27;20035;-55
2021/08/26 10:59:32;;;;;;;4.47;3.47;;;;;;;20.72;68.96;101363.69;5131723;27;20394;-54
2021/08/26 11:01:59;;;;;;;4.72;3.53;;;;;;;20.72;68.13;101355.63;5133105;27;20043;-54
2021/08/26 11:04:30;;;;;;;3.33;3.03;;;;;;;20.74;67.97;101347.38;5133132;27;20020;-54
2021/08/26 11:06:57;;;;;;;4.30;3.10;;;;;;;20.77;67.67;101355.03;5133233;27;20485;-55
2021/08/26 11:09:29;;;;;;;3.55;2.90;;;;;;;20.78;67.38;101343.28;5133139;27;20027;-54
2021/08/26 11:11:59;;;;;;;5.35;2.70;;;;;;;20.79;67.57;101343.09;5133177;27;20045;-54
2021/08/26 11:14:27;;;;;;;3.35;2.70;;;;;;;20.82;67.15;101356.16;5133345;27;20022;-54
2021/08/26 11:16:56;;;;;;;2.90;2.60;;;;;;;20.85;66.85;101344.19;5102348;28;20032;-54
2021/08/26 11:19:24;;;;;;;2.92;2.50;;;;;;;20.87;66.85;101349.38;5130608;27;20097;-54
2021/08/26 11:21:50;;;;;;;3.53;2.15;;;;;;;20.90;67.03;101348.97;5132781;27;20515;-55
2021/08/26 11:24:15;;;;;;;4.15;2.33;;;;;;;20.92;67.01;101346.97;5133082;27;20095;-54
2021/08/26 11:26:44;;;;;;;1.90;1.80;;;;;;;20.95;66.87;101349.28;5133040;27;20565;-54
2021/08/26 11:29:25;;;;;;;2.45;2.25;;;;;;;20.95;66.82;101346.59;5132831;27;20114;-54